Time;durP1;ratioP1;P1;durP2;ratioP2;P2;SDS_P1;SDS_P2;PMS_P1;PMS_P2;Temp;Humidity;BMP_temperature;BMP_pressure;BME280_temperature;BME280_humidity;BME280_pressure;Samples;Min_cycle;Max_cycle;Signal;HPM_P1;HPM_P2
2023/09/27 00:00:10;;;;;;;20.42;17.20;;;;;;;18.64;76.11;101272.97;5087908;28;20257;-66
2023/09/27 00:02:39;;;;;;;21.30;16.90;;;;;;;18.62;76.44;101266.94;5091818;28;20212;-68
2023/09/27 00:05:10;;;;;;;19.35;16.52;;;;;;;18.60;76.33;101268.72;5083206;28;20215;-67
2023/09/27 00:07:40;;;;;;;22.25;17.10;;;;;;;18.59;76.22;101272.22;5089160;28;20606;-67
2023/09/27 00:10:11;;;;;;;21.00;17.10;;;;;;;18.58;76.46;101258.31;5086053;28;20261;-67
2023/09/27 00:12:40;;;;;;;26.38;17.20;;;;;;;18.57;76.36;101263.59;5086521;28;20238;-66
2023/09/27 00:15:11;;;;;;;19.77;16.80;;;;;;;18.56;76.33;101262.72;5086049;28;20200;-64
2023/09/27 00:17:40;;;;;;;20.38;16.42;;;;;;;18.56;76.24;101262.72;5083323;28;20250;-59
2023/09/27 00:20:12;;;;;;;22.52;16.42;;;;;;;18.57;76.26;101263.59;5089369;28;20224;-62
2023/09/27 00:22:41;;;;;;;20.85;16.90;;;;;;;18.57;76.40;101263.59;5088676;28;20251;-63
2023/09/27 00:25:11;;;;;;;21.33;16.77;;;;;;;18.57;76.31;101264.44;5085420;28;20281;-61
2023/09/27 00:27:39;;;;;;;21.02;16.67;;;;;;;18.58;75.94;101249.63;5075691;28;20205;-66
2023/09/27 00:30:13;;;;;;;20.98;16.08;;;;;;;18.58;75.96;101257.47;5087818;28;20202;-65
2023/09/27 00:32:41;;;;;;;22.02;16.38;;;;;;;18.58;76.22;101252.25;5088574;28;20608;-63
2023/09/27 00:35:14;;;;;;;20.95;16.10;;;;;;;18.57;75.91;101251.38;5086354;28;20193;-64
2023/09/27 00:37:42;;;;;;;18.65;16.55;;;;;;;18.59;75.79;101248.72;5089836;28;20236;-64
2023/09/27 00:40:14;;;;;;;19.42;16.10;;;;;;;18.58;75.79;101253.09;5085022;28;20221;-64
2023/09/27 00:42:43;;;;;;;19.60;15.82;;;;;;;18.59;75.58;101246.13;5089654;28;20693;-61
2023/09/27 00:45:11;;;;;;;23.23;16.73;;;;;;;18.60;75.57;101250.47;5084125;28;20204;-61
2023/09/27 00:47:39;;;;;;;18.58;16.58;;;;;;;18.62;75.26;101246.03;5086271;28;20205;-63
2023/09/27 00:50:09;;;;;;;21.92;17.08;;;;;;;18.65;75.14;101245.97;5088127;28;20682;-66
2023/09/27 00:52:40;;;;;;;21.33;16.20;;;;;;;18.64;75.18;101235.56;5078629;28;20205;-65
2023/09/27 00:55:14;;;;;;;23.08;16.42;;;;;;;18.66;74.74;101242.44;5088710;28;20283;-66
2023/09/27 00:57:42;;;;;;;24.13;16.55;;;;;;;18.68;74.58;101239.81;5084112;28;20733;-64
2023/09/27 01:00:11;;;;;;;21.13;16.23;;;;;;;18.68;74.80;101235.44;5083520;28;20208;-65
2023/09/27 01:02:40;;;;;;;20.38;16.77;;;;;;;18.68;74.69;101232.84;5079001;28;20211;-65
2023/09/27 01:05:09;;;;;;;21.35;16.63;;;;;;;18.68;74.77;101222.41;5089120;28;20211;-64
2023/09/27 01:07:40;;;;;;;18.55;16.02;;;;;;;18.67;74.64;101231.13;5086715;28;20197;-65
2023/09/27 01:10:10;;;;;;;21.60;16.92;;;;;;;18.68;74.40;101229.38;5085651;28;20193;-65
2023/09/27 01:12:39;;;;;;;21.27;17.13;;;;;;;18.67;74.22;101233.75;5088369;28;20211;-65
2023/09/27 01:15:08;;;;;;;20.45;15.65;;;;;;;18.65;74.44;101225.09;5089427;28;20205;-65
2023/09/27 01:17:36;;;;;;;22.33;16.13;;;;;;;18.66;74.37;101225.94;5082832;28;20208;-63
2023/09/27 01:20:11;;;;;;;22.13;16.27;;;;;;;18.63;74.56;101216.44;5091325;28;20595;-65
2023/09/27 01:22:39;;;;;;;20.17;15.75;;;;;;;18.64;74.64;101215.53;5087064;28;20896;-65
2023/09/27 01:25:12;;;;;;;18.48;15.93;;;;;;;18.62;74.30;101216.47;5078942;28;20246;-65
2023/09/27 01:27:41;;;;;;;17.02;15.07;;;;;;;18.61;74.69;101213.00;5088999;28;20212;-65
2023/09/27 01:30:10;;;;;;;19.58;14.80;;;;;;;18.62;74.37;101219.94;5088609;28;20232;-65
2023/09/27 01:32:38;;;;;;;18.88;14.60;;;;;;;18.60;74.44;101216.53;5085173;28;20224;-65
2023/09/27 01:35:07;;;;;;;19.58;15.32;;;;;;;18.56;74.57;101228.78;5084284;28;20204;-64
2023/09/27 01:37:35;;;;;;;19.90;15.63;;;;;;;18.50;74.54;101225.47;5088518;28;20236;-65
2023/09/27 01:40:09;;;;;;;16.98;13.45;;;;;;;18.43;75.01;101226.53;5086868;28;20224;-65
2023/09/27 01:42:43;;;;;;;18.08;14.85;;;;;;;18.39;75.40;101222.28;5083349;28;20269;-65
2023/09/27 01:45:14;;;;;;;20.05;15.25;;;;;;;18.32;75.58;101217.22;5089403;28;20234;-67
2023/09/27 01:47:42;;;;;;;17.75;15.57;;;;;;;18.27;75.63;101216.47;5088405;28;20196;-67
2023/09/27 01:50:12;;;;;;;21.98;16.00;;;;;;;18.25;76.13;101215.66;5090073;28;20228;-64
2023/09/27 01:52:40;;;;;;;21.23;15.23;;;;;;;18.22;76.06;101215.72;5085347;28;20227;-65
2023/09/27 01:55:09;;;;;;;21.90;16.40;;;;;;;18.20;76.07;101212.31;5077498;28;20201;-64
2023/09/27 01:57:37;;;;;;;18.40;16.48;;;;;;;18.19;76.16;101215.81;5080821;28;20201;-65
2023/09/27 02:00:11;;;;;;;19.45;15.60;;;;;;;18.19;76.23;101220.16;5084359;28;20306;-65
2023/09/27 02:02:39;;;;;;;20.58;16.50;;;;;;;18.17;76.45;101217.59;5090727;28;20204;-65
2023/09/27 02:05:09;;;;;;;20.25;17.10;;;;;;;18.16;76.49;101213.28;5086259;28;20201;-65
2023/09/27 02:07:39;;;;;;;20.85;17.83;;;;;;;18.15;76.36;101208.94;5085327;28;20648;-67
2023/09/27 02:10:08;;;;;;;20.35;16.05;;;;;;;18.17;76.73;101209.75;5088666;28;20273;-65
2023/09/27 02:12:37;;;;;;;24.25;16.98;;;;;;;18.15;76.42;101208.94;5087255;28;20244;-65
2023/09/27 02:15:08;;;;;;;19.73;15.57;;;;;;;18.15;76.80;101211.53;5090968;28;20209;-64
2023/09/27 02:17:36;;;;;;;23.10;16.63;;;;;;;18.15;76.48;101213.28;5091222;28;20739;-65
2023/09/27 02:20:06;;;;;;;18.63;16.08;;;;;;;18.14;76.57;101215.06;5091600;28;20224;-64
2023/09/27 02:22:34;;;;;;;16.98;15.20;;;;;;;18.13;76.50;101215.09;5091279;28;20212;-65
2023/09/27 02:25:03;;;;;;;20.88;15.27;;;;;;;18.11;76.48;101207.28;5093191;28;20338;-65
2023/09/27 02:27:30;;;;;;;19.75;15.98;;;;;;;18.07;76.72;101208.25;5092384;28;20674;-64
2023/09/27 02:29:58;;;;;;;19.05;15.35;;;;;;;18.07;76.58;101210.88;5087375;28;20270;-64
2023/09/27 02:32:29;;;;;;;20.70;14.90;;;;;;;18.04;76.83;101205.72;5093176;28;20209;-64
2023/09/27 02:34:57;;;;;;;17.67;14.80;;;;;;;18.03;76.89;101204.88;5089720;28;20296;-64
2023/09/27 02:37:25;;;;;;;16.73;14.82;;;;;;;18.03;76.92;101204.03;5091361;28;20250;-64
2023/09/27 02:39:53;;;;;;;21.67;13.98;;;;;;;18.02;76.98;101207.53;5091848;28;20216;-65
2023/09/27 02:42:21;;;;;;;17.60;15.07;;;;;;;17.99;76.86;101199.78;5090405;28;20200;-64
2023/09/27 02:44:49;;;;;;;19.55;14.68;;;;;;;17.97;77.12;101198.94;5090079;28;20208;-65
2023/09/27 02:47:17;;;;;;;16.17;14.23;;;;;;;17.95;77.12;101203.34;5092914;28;20834;-65
2023/09/27 02:49:47;;;;;;;16.27;13.93;;;;;;;17.94;77.29;101204.25;5091087;28;20199;-65
2023/09/27 02:52:15;;;;;;;18.67;13.98;;;;;;;17.94;77.29;101209.47;5091647;28;20207;-65
2023/09/27 02:54:45;;;;;;;19.95;14.50;;;;;;;17.92;77.47;101200.81;5092715;28;20193;-65
2023/09/27 02:57:13;;;;;;;21.13;14.00;;;;;;;17.92;77.18;101203.41;5092890;28;20655;-65
2023/09/27 02:59:41;;;;;;;21.30;14.23;;;;;;;17.92;77.20;101208.63;5092817;28;20196;-65
2023/09/27 03:02:09;;;;;;;18.02;14.38;;;;;;;17.94;77.17;101215.53;5085251;28;20236;-65
2023/09/27 03:04:37;;;;;;;22.90;14.63;;;;;;;17.93;76.95;101203.41;5093161;28;20645;-66
2023/09/27 03:07:11;;;;;;;15.65;13.95;;;;;;;17.95;77.10;101216.38;5085910;28;20663;-66
2023/09/27 03:09:39;;;;;;;16.48;14.77;;;;;;;17.94;76.86;101204.25;5091341;28;20291;-64
2023/09/27 03:12:07;;;;;;;16.70;13.73;;;;;;;17.93;76.70;101212.94;5087471;28;20320;-65
2023/09/27 03:14:35;;;;;;;18.00;14.00;;;;;;;17.90;77.31;101207.81;5090976;28;20204;-65
2023/09/27 03:17:03;;;;;;;17.35;14.40;;;;;;;17.90;76.83;101202.63;5084664;28;20221;-64
2023/09/27 03:19:31;;;;;;;17.60;13.98;;;;;;;17.89;77.05;101204.34;5090717;28;20204;-65
2023/09/27 03:21:59;;;;;;;17.85;13.65;;;;;;;17.88;77.14;101204.38;5090801;28;20213;-65
2023/09/27 03:24:29;;;;;;;18.00;13.50;;;;;;;17.86;77.06;101207.03;5090190;28;20209;-65
2023/09/27 03:26:58;;;;;;;18.20;13.60;;;;;;;17.83;77.02;101201.88;5090685;28;20663;-65
2023/09/27 03:29:26;;;;;;;21.85;13.55;;;;;;;17.80;77.07;101202.81;5091062;28;20211;-65
2023/09/27 03:31:54;;;;;;;16.20;12.82;;;;;;;17.75;77.27;101193.38;5088467;28;20662;-66
2023/09/27 03:34:22;;;;;;;16.75;13.27;;;;;;;17.73;77.49;101201.19;5083919;28;20916;-64
2023/09/27 03:36:55;;;;;;;17.90;13.18;;;;;;;17.72;77.44;101199.50;5083303;28;20214;-65
2023/09/27 03:39:24;;;;;;;17.27;12.95;;;;;;;17.70;77.35;101205.63;5085564;28;20244;-66
2023/09/27 03:41:53;;;;;;;17.05;13.07;;;;;;;17.67;77.40;101209.16;5088510;28;20353;-65
2023/09/27 03:44:21;;;;;;;15.85;12.77;;;;;;;17.63;77.50;101210.09;5088891;28;20244;-65
2023/09/27 03:46:50;;;;;;;16.05;13.52;;;;;;;17.60;77.56;101205.84;5089560;28;20208;-66
2023/09/27 03:49:18;;;;;;;19.10;13.15;;;;;;;17.58;77.79;101204.16;5090481;28;20606;-65
2023/09/27 03:51:46;;;;;;;18.77;13.27;;;;;;;17.53;77.82;101204.25;5085286;28;20197;-65
2023/09/27 03:54:15;;;;;;;19.33;13.05;;;;;;;17.53;78.01;101200.81;5090896;28;20686;-63
2023/09/27 03:56:43;;;;;;;15.98;13.25;;;;;;;17.51;77.93;101199.97;5088783;28;20201;-64
2023/09/27 03:59:13;;;;;;;16.23;13.05;;;;;;;17.47;77.95;101200.94;5090664;28;20245;-64
2023/09/27 04:01:41;;;;;;;16.58;13.25;;;;;;;17.42;78.23;101205.38;5085562;28;20219;-63
2023/09/27 04:04:10;;;;;;;16.75;13.52;;;;;;;17.39;78.33;101201.94;5090840;28;20197;-65
2023/09/27 04:06:38;;;;;;;19.23;13.23;;;;;;;17.35;78.56;101205.50;5084939;28;20227;-64
2023/09/27 04:09:08;;;;;;;16.30;12.82;;;;;;;17.34;78.61;101202.91;5089478;28;20278;-65
2023/09/27 04:11:36;;;;;;;16.17;12.95;;;;;;;17.29;78.65;101199.56;5087829;28;20283;-64
2023/09/27 04:14:05;;;;;;;16.42;13.95;;;;;;;17.29;78.95;101200.41;5083950;28;20333;-66
2023/09/27 04:16:35;;;;;;;14.88;13.27;;;;;;;17.27;78.84;101197.00;5089554;28;20560;-64
2023/09/27 04:19:03;;;;;;;20.20;13.63;;;;;;;17.27;78.72;101207.41;5089553;28;20393;-64
2023/09/27 04:21:31;;;;;;;21.83;14.48;;;;;;;17.25;78.74;101210.94;5089664;28;20224;-64
2023/09/27 04:24:03;;;;;;;17.40;14.10;;;;;;;17.28;78.49;101214.34;5086185;28;20250;-65
2023/09/27 04:26:31;;;;;;;18.23;13.90;;;;;;;17.27;78.63;101215.25;5082740;28;20208;-66
2023/09/27 04:29:00;;;;;;;15.32;13.73;;;;;;;17.25;78.62;101211.78;5089280;28;20659;-64
2023/09/27 04:31:28;;;;;;;18.70;14.65;;;;;;;17.25;78.49;101210.94;5086216;28;20193;-64
2023/09/27 04:33:57;;;;;;;18.15;13.60;;;;;;;17.23;78.50;101213.59;5084600;28;20213;-65
2023/09/27 04:36:25;;;;;;;20.88;15.15;;;;;;;17.20;78.78;101213.66;5087633;28;20208;-65
2023/09/27 04:38:53;;;;;;;21.80;14.85;;;;;;;17.18;78.52;101209.34;5089165;28;20255;-63
2023/09/27 04:41:21;;;;;;;22.08;14.70;;;;;;;17.18;78.70;101219.75;5084140;28;20212;-65
2023/09/27 04:43:50;;;;;;;20.63;14.75;;;;;;;17.15;78.62;101212.84;5088383;28;20295;-64
2023/09/27 04:46:19;;;;;;;20.27;15.95;;;;;;;17.15;78.50;101212.84;5088126;28;20205;-65
2023/09/27 04:48:47;;;;;;;18.35;15.20;;;;;;;17.14;78.78;101213.75;5088843;28;20208;-64
2023/09/27 04:51:16;;;;;;;18.15;14.20;;;;;;;17.14;78.55;101217.22;5088520;28;20341;-63
2023/09/27 04:53:44;;;;;;;18.55;15.60;;;;;;;17.13;78.47;101217.25;5090664;28;20204;-69
2023/09/27 04:56:12;;;;;;;20.38;15.15;;;;;;;17.14;78.46;101216.34;5084570;28;20292;-65
2023/09/27 04:58:41;;;;;;;16.20;14.40;;;;;;;17.17;78.62;101216.31;5078831;28;20197;-64
2023/09/27 05:01:10;;;;;;;22.45;15.80;;;;;;;17.15;78.43;101218.91;5083629;28;20273;-64
2023/09/27 05:03:39;;;;;;;16.05;14.35;;;;;;;17.13;78.17;101217.25;5082606;28;20563;-64
2023/09/27 05:06:07;;;;;;;20.75;15.48;;;;;;;17.11;78.50;101226.84;5086313;28;20208;-65
2023/09/27 05:08:36;;;;;;;20.05;15.15;;;;;;;17.12;78.61;101223.34;5086062;28;20918;-65
2023/09/27 05:11:04;;;;;;;19.90;14.63;;;;;;;17.13;78.46;101230.28;5077421;28;20209;-67
2023/09/27 05:13:32;;;;;;;20.70;14.80;;;;;;;17.14;78.56;101226.78;5081447;28;20200;-67
2023/09/27 05:16:00;;;;;;;19.40;15.63;;;;;;;17.15;78.48;101231.09;5081965;28;20214;-65
2023/09/27 05:18:28;;;;;;;22.02;14.95;;;;;;;17.17;78.45;101225.88;5085702;28;20208;-65
2023/09/27 05:20:59;;;;;;;18.02;15.38;;;;;;;17.16;78.32;101230.22;5089800;28;20208;-64
2023/09/27 05:23:28;;;;;;;20.83;15.95;;;;;;;17.14;78.42;101224.19;5085342;28;20255;-66
2023/09/27 05:25:57;;;;;;;19.83;15.35;;;;;;;17.22;78.22;101237.91;5083278;28;20210;-65
2023/09/27 05:28:25;;;;;;;21.38;15.38;;;;;;;17.26;78.01;101236.09;5089784;28;20204;-65
2023/09/27 05:30:53;;;;;;;16.98;15.18;;;;;;;17.30;78.00;101230.78;5087409;28;20250;-65
2023/09/27 05:33:22;;;;;;;17.75;15.30;;;;;;;17.32;77.36;101235.97;5079903;28;20197;-65
2023/09/27 05:35:50;;;;;;;17.83;14.85;;;;;;;17.36;77.53;101248.03;5093329;28;20213;-65
2023/09/27 05:38:18;;;;;;;21.45;15.63;;;;;;;17.38;77.67;101241.94;5095520;28;20228;-65
2023/09/27 05:40:46;;;;;;;18.67;15.18;;;;;;;17.40;77.40;101239.28;5091069;28;20213;-65
2023/09/27 05:43:16;;;;;;;18.60;15.65;;;;;;;17.42;77.47;101245.31;5085765;28;20212;-67
2023/09/27 05:45:44;;;;;;;23.00;15.50;;;;;;;17.49;77.12;101248.63;5093954;28;20664;-67
2023/09/27 05:48:14;;;;;;;18.58;15.07;;;;;;;17.51;76.75;101247.72;5091936;28;20250;-67
2023/09/27 05:50:44;;;;;;;21.80;15.88;;;;;;;17.55;76.63;101238.09;5086032;28;20207;-66
2023/09/27 05:53:12;;;;;;;19.05;15.88;;;;;;;17.59;76.36;101243.19;5086259;28;20315;-64
2023/09/27 05:55:42;;;;;;;21.83;15.25;;;;;;;17.60;75.73;101247.53;5081777;28;21976;-67
2023/09/27 05:58:10;;;;;;;21.90;15.23;;;;;;;17.59;76.01;101239.75;5089625;28;20201;-69
2023/09/27 06:00:42;;;;;;;22.08;15.45;;;;;;;17.66;75.89;101246.53;5089875;28;20205;-68
2023/09/27 06:03:10;;;;;;;24.65;14.82;;;;;;;17.74;75.61;101249.84;5092268;28;20235;-70
2023/09/27 06:05:38;;;;;;;20.50;14.35;;;;;;;17.79;75.15;101250.63;5093901;28;20278;-69
2023/09/27 06:08:07;;;;;;;16.85;15.05;;;;;;;17.82;74.99;101240.16;5088435;28;20204;-70
2023/09/27 06:10:35;;;;;;;26.05;15.65;;;;;;;17.92;74.44;101253.81;5093678;28;20201;-69
2023/09/27 06:13:05;;;;;;;20.38;14.10;;;;;;;17.95;74.17;101247.69;5092897;28;20859;-69
2023/09/27 06:15:33;;;;;;;21.45;14.82;;;;;;;18.02;73.87;101255.31;5086368;28;20208;-71
2023/09/27 06:18:04;;;;;;;17.42;14.05;;;;;;;18.07;73.70;101252.59;5092330;28;20216;-69
2023/09/27 06:20:32;;;;;;;20.25;14.88;;;;;;;18.11;73.19;101259.47;5082610;28;20317;-70
2023/09/27 06:23:03;;;;;;;21.40;15.25;;;;;;;18.13;73.18;101249.88;5089194;28;20305;-68
2023/09/27 06:25:33;;;;;;;23.45;14.18;;;;;;;18.18;73.05;101255.81;5093390;28;20638;-68
2023/09/27 06:28:03;;;;;;;18.95;14.43;;;;;;;18.20;73.06;101248.81;5085663;28;20811;-67
2023/09/27 06:30:31;;;;;;;19.02;14.60;;;;;;;18.28;72.40;101259.94;5089465;28;20551;-70
2023/09/27 06:32:59;;;;;;;20.33;14.02;;;;;;;18.35;72.33;101263.25;5093582;28;20210;-69
2023/09/27 06:35:31;;;;;;;21.30;13.45;;;;;;;18.42;71.86;101259.59;5093854;28;20249;-68
2023/09/27 06:38:00;;;;;;;21.60;14.38;;;;;;;18.54;71.60;101264.50;5084385;28;20242;-68
2023/09/27 06:40:29;;;;;;;16.83;14.23;;;;;;;18.73;71.04;101262.31;5090018;28;20206;-68
2023/09/27 06:42:57;;;;;;;17.40;13.73;;;;;;;18.96;70.14;101261.72;5090823;28;20694;-68
2023/09/27 06:45:25;;;;;;;18.13;13.52;;;;;;;19.18;69.29;101266.34;5085409;28;20205;-68
2023/09/27 06:47:55;;;;;;;19.13;13.65;;;;;;;19.41;68.54;101263.13;5090412;28;20213;-69
2023/09/27 06:50:24;;;;;;;15.75;13.65;;;;;;;19.70;67.55;101257.03;5091658;28;20212;-69
2023/09/27 06:52:54;;;;;;;22.65;13.45;;;;;;;20.05;66.29;101262.97;5092498;28;20197;-68
2023/09/27 06:55:44;;;;;;;16.27;13.68;;;;;;;20.60;64.80;101264.66;5090287;28;20655;-68
2023/09/27 06:58:13;;;;;;;17.55;13.40;;;;;;;21.29;62.63;101264.03;5091953;28;20648;-68
2023/09/27 07:00:41;;;;;;;15.48;12.95;;;;;;;22.13;60.59;101253.78;5084232;28;20200;-70
2023/09/27 07:03:09;;;;;;;16.20;13.13;;;;;;;23.02;58.01;101257.13;5092720;28;20204;-69
2023/09/27 07:05:38;;;;;;;15.55;12.30;;;;;;;23.81;54.41;101256.13;5093557;28;20568;-65
2023/09/27 07:08:07;;;;;;;22.83;12.18;;;;;;;24.63;52.12;101257.44;5090522;28;20216;-65
2023/09/27 07:10:35;;;;;;;18.65;11.75;;;;;;;24.98;49.35;101250.34;5085171;28;20564;-62
2023/09/27 07:13:03;;;;;;;17.08;12.38;;;;;;;25.42;48.63;101247.16;5092653;28;20200;-64
2023/09/27 07:15:32;;;;;;;17.35;11.07;;;;;;;25.87;46.56;101256.13;5083500;28;20562;-64
2023/09/27 07:18:00;;;;;;;16.55;11.27;;;;;;;26.02;45.52;101250.81;5084689;28;20197;-63
2023/09/27 07:20:32;;;;;;;22.33;11.05;;;;;;;26.11;45.16;101249.47;5085904;28;20205;-68
2023/09/27 07:23:03;;;;;;;22.13;12.80;;;;;;;25.97;45.53;101258.19;5087688;28;20652;-62
2023/09/27 07:25:37;;;;;;;18.35;11.90;;;;;;;26.27;46.29;101255.56;5085882;28;20554;-62
2023/09/27 07:28:06;;;;;;;26.30;12.38;;;;;;;27.02;45.04;101258.19;5089652;28;20188;-63
2023/09/27 07:30:34;;;;;;;15.48;11.23;;;;;;;27.90;42.32;101258.91;5086219;28;20197;-64
2023/09/27 07:33:08;;;;;;;15.20;11.38;;;;;;;29.04;40.38;101257.47;5079042;28;20260;-71
2023/09/27 07:35:41;;;;;;;17.60;11.23;;;;;;;30.25;37.38;101252.25;5089296;28;20207;-70
2023/09/27 07:38:10;;;;;;;16.98;10.43;;;;;;;31.29;35.44;101257.50;5089723;28;20235;-71
2023/09/27 07:40:40;;;;;;;15.70;10.73;;;;;;;32.07;33.49;101258.34;5090204;28;20215;-71
2023/09/27 07:43:08;;;;;;;16.45;11.20;;;;;;;32.38;32.89;101255.78;5090516;28;20660;-70
2023/09/27 07:45:41;;;;;;;15.52;11.82;;;;;;;32.31;32.84;101260.78;5089624;28;20266;-70
2023/09/27 07:48:10;;;;;;;15.55;10.40;;;;;;;32.00;33.12;101257.19;5087031;28;20209;-71
2023/09/27 07:50:38;;;;;;;17.92;10.30;;;;;;;31.45;33.60;101261.66;5087205;28;20211;-70
2023/09/27 07:53:08;;;;;;;14.55;9.95;;;;;;;30.85;34.54;101268.97;5087930;28;20197;-71
2023/09/27 07:55:48;;;;;;;13.68;10.50;;;;;;;30.35;35.47;101265.72;5090292;28;20207;-71
2023/09/27 07:58:16;;;;;;;15.30;9.98;;;;;;;30.06;35.92;101270.50;5086750;28;20211;-70
2023/09/27 08:00:44;;;;;;;13.82;10.68;;;;;;;29.89;36.56;101278.88;5085176;28;20232;-72
2023/09/27 08:03:14;;;;;;;14.55;10.88;;;;;;;29.72;36.81;101274.81;5089212;28;20225;-71
2023/09/27 08:05:45;;;;;;;14.38;10.82;;;;;;;29.60;36.64;101284.47;5088585;28;20287;-71
2023/09/27 08:08:14;;;;;;;12.20;10.18;;;;;;;29.45;36.67;101285.56;5089796;28;20205;-70
2023/09/27 08:10:45;;;;;;;11.93;10.48;;;;;;;29.07;37.32;101278.50;5090206;28;20193;-71
2023/09/27 08:13:14;;;;;;;17.00;10.88;;;;;;;28.54;38.30;101283.00;5089334;28;20542;-71
2023/09/27 08:15:43;;;;;;;12.98;11.68;;;;;;;27.90;40.36;101286.22;5087506;28;20201;-79
2023/09/27 08:18:12;;;;;;;13.15;11.52;;;;;;;27.31;41.95;101288.19;5088662;28;20266;-71
2023/09/27 08:20:40;;;;;;;14.25;11.63;;;;;;;26.90;42.64;101286.25;5089406;28;20258;-72
2023/09/27 08:23:09;;;;;;;16.73;11.43;;;;;;;26.60;43.91;101293.38;5089176;28;20220;-69
2023/09/27 08:25:37;;;;;;;15.98;12.57;;;;;;;26.31;44.65;101287.94;5088481;28;20258;-71
2023/09/27 08:28:09;;;;;;;17.15;12.55;;;;;;;26.02;45.61;101293.09;5089441;28;20208;-71
2023/09/27 08:30:37;;;;;;;14.70;12.45;;;;;;;25.80;46.11;101292.59;5084849;28;20204;-72
2023/09/27 08:33:05;;;;;;;17.55;12.63;;;;;;;25.57;46.79;101299.09;5087741;28;20201;-72
2023/09/27 08:35:33;;;;;;;18.38;12.57;;;;;;;25.41;47.52;101296.44;5079106;28;20258;-73
2023/09/27 08:38:01;;;;;;;17.55;13.00;;;;;;;25.30;47.78;101296.16;5083409;28;20236;-74
2023/09/27 08:40:29;;;;;;;18.00;12.55;;;;;;;25.23;48.28;101302.72;5088199;28;20197;-72
2023/09/27 08:42:59;;;;;;;16.80;11.68;;;;;;;25.17;48.57;101303.03;5088383;28;20204;-74
2023/09/27 08:45:31;;;;;;;15.30;12.60;;;;;;;25.06;48.95;101299.13;5079830;28;20216;-72
2023/09/27 08:47:59;;;;;;;17.45;12.45;;;;;;;25.05;49.02;101296.56;5087842;28;20201;-72
2023/09/27 08:50:28;;;;;;;18.88;12.18;;;;;;;25.09;48.15;101294.63;5088209;28;20200;-71
2023/09/27 08:52:57;;;;;;;17.33;13.10;;;;;;;24.99;48.72;101295.09;5087999;28;20236;-72
2023/09/27 08:55:25;;;;;;;14.45;11.35;;;;;;;24.97;49.19;101293.50;5086628;28;20230;-72
2023/09/27 08:57:56;;;;;;;17.27;11.07;;;;;;;25.06;49.16;101288.56;5085842;28;20281;-71
2023/09/27 09:00:26;;;;;;;14.98;11.20;;;;;;;25.23;48.73;101292.16;5089181;28;20197;-72
2023/09/27 09:02:57;;;;;;;32.85;12.43;;;;;;;25.27;48.93;101288.41;5089389;28;20205;-71
2023/09/27 09:05:28;;;;;;;21.42;11.55;;;;;;;25.25;48.59;101290.28;5080258;28;20201;-74
2023/09/27 09:07:59;;;;;;;17.42;11.43;;;;;;;25.25;48.41;101285.84;5087699;28;20200;-72
2023/09/27 09:10:27;;;;;;;14.45;11.35;;;;;;;25.31;48.66;101292.59;5084123;28;20287;-73
2023/09/27 09:12:55;;;;;;;17.50;11.75;;;;;;;25.36;48.67;101285.28;5083661;28;20211;-72
2023/09/27 09:15:35;;;;;;;14.90;10.52;;;;;;;25.42;48.36;101284.09;5090879;28;20203;-73
2023/09/27 09:18:08;;;;;;;13.63;10.63;;;;;;;25.49;47.93;101285.47;5088759;28;20208;-71
2023/09/27 09:20:49;;;;;;;14.05;10.70;;;;;;;25.43;48.37;101291.94;5084216;28;20262;-71
2023/09/27 09:23:32;;;;;;;19.75;12.00;;;;;;;25.32;48.71;101291.66;5082161;28;20247;-72
2023/09/27 09:26:01;;;;;;;15.80;11.80;;;;;;;25.14;48.54;101276.78;5090725;28;20246;-72
2023/09/27 09:28:29;;;;;;;17.65;11.95;;;;;;;24.97;49.49;101283.78;5088729;28;20731;-71
2023/09/27 09:30:57;;;;;;;21.83;10.68;;;;;;;24.80;50.60;101281.16;5082201;28;20618;-70
2023/09/27 09:33:28;;;;;;;14.18;10.45;;;;;;;24.68;50.81;101287.06;5089313;28;20300;-71
2023/09/27 09:35:57;;;;;;;21.05;11.60;;;;;;;24.61;51.30;101283.88;5079480;28;20217;-69
2023/09/27 09:38:28;;;;;;;16.55;11.50;;;;;;;24.62;50.86;101290.00;5087174;28;20280;-71
2023/09/27 09:40:58;;;;;;;16.67;11.07;;;;;;;24.66;51.27;101288.91;5087632;28;20204;-69
2023/09/27 09:43:31;;;;;;;16.77;11.48;;;;;;;24.80;51.20;101286.44;5088304;28;20203;-71
2023/09/27 09:46:00;;;;;;;13.13;9.68;;;;;;;24.99;51.21;101284.53;5088721;28;20196;-70
2023/09/27 09:48:31;;;;;;;15.93;10.90;;;;;;;25.21;50.15;101291.38;5092399;28;20226;-72
2023/09/27 09:51:04;;;;;;;15.38;9.57;;;;;;;25.43;49.65;101286.66;5089558;28;20238;-72
2023/09/27 09:53:32;;;;;;;16.10;10.85;;;;;;;25.56;49.10;101284.22;5088332;28;20212;-72
2023/09/27 09:56:03;;;;;;;17.60;10.80;;;;;;;25.69;48.77;101294.94;5088424;28;20215;-71
2023/09/27 09:58:36;;;;;;;13.15;9.35;;;;;;;25.80;48.37;101295.22;5078576;28;20596;-71
2023/09/27 10:01:05;;;;;;;15.32;10.30;;;;;;;25.92;48.10;101291.06;5081342;28;20258;-72
2023/09/27 10:03:35;;;;;;;20.45;10.00;;;;;;;26.06;47.50;101287.63;5080381;28;20208;-71
2023/09/27 10:06:04;;;;;;;10.70;9.38;;;;;;;26.19;47.29;101281.56;5089033;28;20631;-71
2023/09/27 10:08:34;;;;;;;11.07;9.38;;;;;;;26.32;47.37;101286.16;5083437;28;20241;-70
2023/09/27 10:11:05;;;;;;;18.00;9.38;;;;;;;26.38;47.17;101289.28;5095968;28;20258;-71
2023/09/27 10:13:36;;;;;;;12.90;9.10;;;;;;;26.42;46.39;101290.81;5089320;28;20569;-71
2023/09/27 10:16:05;;;;;;;12.02;9.27;;;;;;;26.43;46.29;101287.22;5083495;28;20629;-72
2023/09/27 10:18:38;;;;;;;12.98;9.25;;;;;;;26.45;45.91;101285.34;5092356;28;20212;-71
2023/09/27 10:21:08;;;;;;;14.82;8.52;;;;;;;26.41;46.36;101275.91;5085365;28;20209;-70
2023/09/27 10:23:57;;;;;;;14.25;8.27;;;;;;;26.43;46.27;101281.94;5089152;28;20740;-71
2023/09/27 10:26:38;;;;;;;15.30;8.25;;;;;;;26.48;46.40;101274.66;5091368;28;22246;-69
2023/09/27 10:29:12;;;;;;;16.70;9.93;;;;;;;26.54;46.26;101281.34;5085192;28;20208;-72
2023/09/27 10:32:20;;;;;;;13.98;10.25;;;;;;;26.55;46.81;101280.44;5091219;28;20210;-71
2023/09/27 10:34:51;;;;;;;14.93;10.30;;;;;;;26.58;46.59;101272.28;5091397;28;20192;-72
2023/09/27 10:37:56;;;;;;;15.07;10.80;;;;;;;26.68;46.11;101276.09;5089594;28;20668;-72
2023/09/27 10:40:25;;;;;;;19.25;9.75;;;;;;;26.73;45.66;101273.16;5088745;28;20599;-73
2023/09/27 10:42:53;;;;;;;13.38;8.13;;;;;;;26.87;45.22;101265.25;5086147;28;20193;-70
2023/09/27 10:45:21;;;;;;;15.25;9.30;;;;;;;26.94;44.63;101269.25;5091641;28;20319;-72
2023/09/27 10:47:52;;;;;;;14.02;7.90;;;;;;;27.04;44.19;101263.41;5092015;28;20292;-73
2023/09/27 10:50:29;;;;;;;10.80;9.13;;;;;;;27.20;44.09;101267.69;5090361;28;20193;-70
2023/09/27 10:53:00;;;;;;;11.93;8.38;;;;;;;27.29;43.78;101271.56;5088925;28;20203;-72
2023/09/27 10:55:38;;;;;;;12.55;7.32;;;;;;;27.34;43.25;101265.97;5083336;28;20215;-71
2023/09/27 10:58:06;;;;;;;14.13;7.20;;;;;;;27.36;42.71;101262.31;5092047;28;20204;-71
2023/09/27 11:00:34;;;;;;;15.18;7.88;;;;;;;27.37;42.64;101264.00;5092452;28;20233;-70
2023/09/27 11:03:17;;;;;;;10.98;7.57;;;;;;;27.38;42.47;101260.38;5089229;28;20205;-70
2023/09/27 11:05:47;;;;;;;15.40;7.30;;;;;;;27.33;42.22;101251.06;5090477;28;20311;-72
2023/09/27 11:08:21;;;;;;;13.77;7.13;;;;;;;27.31;42.00;101258.22;5093199;28;20670;-68
2023/09/27 11:10:52;;;;;;;10.15;6.85;;;;;;;27.28;42.32;101248.66;5082605;28;20664;-71
2023/09/27 11:13:21;;;;;;;9.50;7.05;;;;;;;27.29;42.31;101246.91;5087824;28;20216;-71
2023/09/27 11:15:50;;;;;;;14.68;6.55;;;;;;;27.29;42.20;101239.81;5095234;28;20209;-71
2023/09/27 11:18:18;;;;;;;11.93;7.18;;;;;;;27.30;42.26;101241.50;5092173;28;20283;-71
2023/09/27 11:20:48;;;;;;;10.40;6.85;;;;;;;27.38;42.10;101241.84;5082028;28;20193;-71